createdAt,value
2018-08-31T00:00:59.816Z,13.30
2018-08-31T00:05:54.511Z,13.40
2018-08-31T00:10:42.771Z,13.40
2018-08-31T00:13:10.625Z,13.40
2018-08-31T00:15:38.415Z,13.20
2018-08-31T00:18:06.362Z,13.30
2018-08-31T00:20:34.158Z,13.30
2018-08-31T00:23:01.926Z,13.30
2018-08-31T00:26:14.023Z,13.20
2018-08-31T00:29:47.115Z,13.20
2018-08-31T00:34:34.521Z,13.20
2018-08-31T00:41:30.354Z,13.20
2018-08-31T00:44:22.823Z,13.20
2018-08-31T00:46:50.705Z,13.10
2018-08-31T00:49:18.504Z,13.20
2018-08-31T00:51:46.384Z,13.10
2018-08-31T00:54:14.193Z,13.10
2018-08-31T00:56:41.993Z,13.10
2018-08-31T00:59:09.870Z,13.10
2018-08-31T01:01:37.683Z,13.20
2018-08-31T01:04:05.623Z,13.10
2018-08-31T01:06:33.367Z,13.10
2018-08-31T01:09:01.163Z,13.00
2018-08-31T01:11:28.960Z,13.00
2018-08-31T01:13:56.795Z,13.00
2018-08-31T01:16:24.715Z,13.00
2018-08-31T01:18:52.584Z,12.90
2018-08-31T01:21:20.418Z,12.90
2018-08-31T01:23:48.167Z,12.90
2018-08-31T01:26:16.028Z,12.90
2018-08-31T01:28:43.817Z,13.00
2018-08-31T01:31:11.631Z,12.90
2018-08-31T01:33:39.415Z,12.90
2018-08-31T01:36:07.190Z,12.80
2018-08-31T01:38:35.031Z,12.90
2018-08-31T01:41:02.861Z,12.90
2018-08-31T01:43:30.659Z,12.80
2018-08-31T01:45:58.385Z,12.90
2018-08-31T01:48:26.195Z,12.80
2018-08-31T01:50:59.784Z,12.80
2018-08-31T01:53:28.565Z,12.80
2018-08-31T01:55:56.431Z,12.80
2018-08-31T01:58:24.213Z,12.80
2018-08-31T02:00:52.003Z,12.80
2018-08-31T02:03:19.766Z,12.80
2018-08-31T02:05:47.553Z,12.80
2018-08-31T02:08:15.357Z,12.80
2018-08-31T02:10:43.187Z,12.80
2018-08-31T02:13:10.995Z,12.70
2018-08-31T02:15:38.780Z,12.70
2018-08-31T02:18:06.639Z,12.70
2018-08-31T02:20:34.463Z,12.70
2018-08-31T02:23:02.326Z,12.70
2018-08-31T02:25:30.116Z,12.80
2018-08-31T02:27:57.928Z,12.70
2018-08-31T02:30:25.780Z,12.70
2018-08-31T02:32:53.656Z,12.60
2018-08-31T02:35:21.424Z,12.60
2018-08-31T02:37:49.215Z,12.60
2018-08-31T02:40:16.983Z,12.60
2018-08-31T02:42:44.783Z,12.50
2018-08-31T02:45:12.608Z,12.40
2018-08-31T02:47:40.396Z,12.50
2018-08-31T02:50:08.263Z,12.60
2018-08-31T02:52:36.073Z,12.50
2018-08-31T02:55:03.950Z,12.50
2018-08-31T02:57:31.785Z,12.40
2018-08-31T02:59:59.648Z,12.40
2018-08-31T03:02:27.440Z,12.30
2018-08-31T03:04:55.296Z,12.30
2018-08-31T03:07:23.144Z,12.30
2018-08-31T03:09:50.963Z,12.20
2018-08-31T03:12:18.964Z,12.10
2018-08-31T03:14:46.716Z,12.10
2018-08-31T03:17:14.608Z,12.20
2018-08-31T03:19:42.483Z,12.10
2018-08-31T03:22:10.294Z,12.10
2018-08-31T03:24:38.067Z,12.10
2018-08-31T03:27:05.874Z,12.20
2018-08-31T03:29:33.670Z,12.10
2018-08-31T03:32:01.463Z,12.10
2018-08-31T03:34:29.200Z,12.10
2018-08-31T03:36:56.974Z,12.10
2018-08-31T03:39:24.763Z,12.10
2018-08-31T03:41:52.637Z,12.00
2018-08-31T03:44:20.412Z,12.00
2018-08-31T03:46:48.182Z,12.00
2018-08-31T03:49:15.927Z,12.00
2018-08-31T03:51:43.829Z,12.00
2018-08-31T03:54:11.610Z,11.90
2018-08-31T03:56:39.585Z,12.00
2018-08-31T03:59:07.740Z,12.00
2018-08-31T04:01:35.551Z,12.00
2018-08-31T04:04:03.436Z,12.00
2018-08-31T04:06:31.257Z,12.00
2018-08-31T04:08:59.127Z,12.00
2018-08-31T04:11:26.948Z,12.00
2018-08-31T04:13:54.755Z,12.00
2018-08-31T04:16:22.521Z,12.00
2018-08-31T04:18:50.332Z,12.00
2018-08-31T04:21:18.095Z,12.10
2018-08-31T04:23:45.959Z,12.10
2018-08-31T04:26:13.791Z,12.00
2018-08-31T04:28:41.579Z,12.10
2018-08-31T04:31:09.334Z,12.00
2018-08-31T04:33:37.155Z,12.00
2018-08-31T04:36:04.907Z,12.00
2018-08-31T04:38:32.638Z,12.10
2018-08-31T04:41:00.488Z,12.00
2018-08-31T04:43:28.196Z,12.00
2018-08-31T04:45:55.995Z,12.00
2018-08-31T04:48:26.067Z,11.90
2018-08-31T04:50:58.924Z,12.00
2018-08-31T04:53:27.055Z,12.00
2018-08-31T04:55:54.887Z,12.00
2018-08-31T04:58:22.717Z,12.00
2018-08-31T05:00:50.506Z,12.00
2018-08-31T05:03:18.363Z,12.10
2018-08-31T05:05:46.211Z,12.10
2018-08-31T05:08:14.098Z,12.00
2018-08-31T05:10:41.978Z,12.10
2018-08-31T05:13:09.919Z,12.10
2018-08-31T05:15:37.820Z,12.20
2018-08-31T05:18:05.712Z,12.40
2018-08-31T05:20:33.523Z,12.30
2018-08-31T05:23:02.380Z,12.30
2018-08-31T05:25:30.135Z,12.40
2018-08-31T05:27:57.955Z,12.50
2018-08-31T05:30:25.852Z,12.50
2018-08-31T05:32:53.617Z,12.50
2018-08-31T05:35:21.424Z,12.60
2018-08-31T05:37:49.375Z,12.60
2018-08-31T05:40:17.235Z,12.60
2018-08-31T05:42:45.099Z,12.70
2018-08-31T05:45:13.317Z,12.80
2018-08-31T05:47:41.155Z,12.80
2018-08-31T05:50:08.992Z,12.90
2018-08-31T05:52:36.758Z,12.90
2018-08-31T05:55:04.735Z,12.90
2018-08-31T05:57:32.841Z,13.00
2018-08-31T06:00:00.796Z,13.10
2018-08-31T06:02:28.720Z,13.20
2018-08-31T06:04:56.703Z,13.30
2018-08-31T06:07:24.551Z,13.40
2018-08-31T06:09:52.322Z,13.40
2018-08-31T06:12:20.291Z,13.60
2018-08-31T06:14:48.183Z,13.60
2018-08-31T06:17:16.026Z,13.60
2018-08-31T06:19:43.832Z,13.80
2018-08-31T06:22:11.751Z,13.90
2018-08-31T06:24:39.620Z,14.00
2018-08-31T06:27:07.398Z,14.00
2018-08-31T06:29:35.243Z,14.10
2018-08-31T06:32:03.113Z,14.10
2018-08-31T06:34:30.934Z,14.20
2018-08-31T06:36:58.711Z,14.40
2018-08-31T06:39:26.494Z,14.60
2018-08-31T06:41:54.266Z,14.50
2018-08-31T06:44:22.091Z,14.70
2018-08-31T06:46:50.008Z,14.60
2018-08-31T06:49:17.994Z,14.90
2018-08-31T06:51:45.800Z,15.00
2018-08-31T06:54:13.588Z,15.10
2018-08-31T06:56:41.355Z,15.20
2018-08-31T06:59:09.215Z,15.30
2018-08-31T07:01:37.024Z,15.40
2018-08-31T07:04:04.792Z,15.50
2018-08-31T07:06:32.602Z,15.40
2018-08-31T07:09:00.399Z,15.80
2018-08-31T07:11:28.154Z,15.70
2018-08-31T07:13:56.003Z,15.60
2018-08-31T07:16:23.783Z,15.60
2018-08-31T07:18:51.659Z,15.80
2018-08-31T07:21:19.515Z,15.80
2018-08-31T07:23:47.364Z,15.90
2018-08-31T07:26:15.193Z,16.10
2018-08-31T07:28:42.939Z,16.20
2018-08-31T07:31:10.696Z,16.10
2018-08-31T07:33:38.472Z,16.10
2018-08-31T07:36:06.289Z,16.40
2018-08-31T07:38:34.044Z,16.60
2018-08-31T07:41:01.855Z,16.90
2018-08-31T07:43:29.660Z,16.90
2018-08-31T07:45:57.450Z,17.10
2018-08-31T07:48:25.168Z,17.20
2018-08-31T07:50:52.958Z,17.40
2018-08-31T07:53:20.753Z,17.30
2018-08-31T07:55:48.535Z,16.80
2018-08-31T07:58:16.386Z,17.10
2018-08-31T08:00:44.215Z,17.10
2018-08-31T08:03:11.963Z,17.10
2018-08-31T08:05:39.828Z,17.30
2018-08-31T08:08:07.551Z,17.30
2018-08-31T08:10:35.319Z,17.40
2018-08-31T08:13:03.108Z,17.50
2018-08-31T08:15:30.952Z,17.70
2018-08-31T08:17:58.780Z,17.70
2018-08-31T08:20:26.494Z,17.80
2018-08-31T08:22:54.343Z,17.80
2018-08-31T08:25:22.123Z,17.70
2018-08-31T08:27:49.936Z,17.50
2018-08-31T08:30:17.736Z,18.00
2018-08-31T08:32:45.515Z,18.20
2018-08-31T08:35:13.371Z,17.90
2018-08-31T08:37:41.470Z,18.20
2018-08-31T08:40:09.425Z,18.20
2018-08-31T08:42:37.323Z,18.80
2018-08-31T08:45:05.569Z,18.70
2018-08-31T08:47:33.352Z,19.00
2018-08-31T08:50:01.200Z,19.10
2018-08-31T08:52:28.987Z,19.20
2018-08-31T08:54:57.638Z,19.30
2018-08-31T08:57:25.485Z,19.60
2018-08-31T08:59:53.249Z,19.80
2018-08-31T09:02:21.110Z,19.50
2018-08-31T09:04:48.906Z,19.60
2018-08-31T09:07:17.511Z,20.00
2018-08-31T09:09:46.383Z,20.20
2018-08-31T09:12:14.310Z,20.30
2018-08-31T09:14:42.068Z,20.60
2018-08-31T09:17:09.879Z,20.60
2018-08-31T09:19:37.967Z,20.80
2018-08-31T09:22:05.862Z,21.20
2018-08-31T09:24:33.652Z,21.20
2018-08-31T09:27:01.479Z,21.50
2018-08-31T09:29:29.252Z,21.00
2018-08-31T09:31:57.064Z,21.30
2018-08-31T09:34:24.908Z,21.60
2018-08-31T09:36:52.728Z,21.40
2018-08-31T09:39:20.560Z,21.30
2018-08-31T09:41:48.390Z,21.60
2018-08-31T09:44:16.174Z,21.50
2018-08-31T09:46:43.959Z,21.30
2018-08-31T09:49:11.816Z,21.70
2018-08-31T09:51:39.601Z,21.50
2018-08-31T09:54:07.352Z,21.60
2018-08-31T09:56:35.119Z,21.80
2018-08-31T09:59:02.970Z,21.60
2018-08-31T10:01:32.807Z,20.80
2018-08-31T10:04:01.491Z,21.00
2018-08-31T10:06:30.548Z,21.30
2018-08-31T10:08:58.418Z,21.10
2018-08-31T10:11:26.251Z,21.60
2018-08-31T10:13:54.039Z,21.80
2018-08-31T10:16:21.855Z,21.50
2018-08-31T10:18:49.693Z,21.50
2018-08-31T10:21:17.399Z,21.40
2018-08-31T10:23:45.175Z,20.70
2018-08-31T10:26:12.991Z,21.00
2018-08-31T10:28:40.779Z,21.00
2018-08-31T10:31:08.607Z,21.50
2018-08-31T10:33:36.468Z,20.80
2018-08-31T10:36:04.843Z,21.70
2018-08-31T10:38:32.633Z,21.40
2018-08-31T10:41:00.507Z,21.40
2018-08-31T10:43:28.399Z,21.70
2018-08-31T10:45:56.186Z,21.00
2018-08-31T10:48:24.272Z,21.30
2018-08-31T10:50:52.108Z,21.50
2018-08-31T10:53:19.969Z,21.70
2018-08-31T10:55:47.752Z,21.20
2018-08-31T10:58:15.563Z,20.70
2018-08-31T11:00:43.412Z,20.70
2018-08-31T11:03:11.287Z,20.40
2018-08-31T11:05:39.287Z,20.50
2018-08-31T11:08:07.140Z,20.90
2018-08-31T11:10:34.963Z,21.70
2018-08-31T11:13:02.825Z,21.70
2018-08-31T11:15:30.671Z,22.50
2018-08-31T11:17:58.495Z,23.80
2018-08-31T11:20:26.320Z,24.20
2018-08-31T11:22:54.082Z,24.60
2018-08-31T11:25:22.638Z,24.30
2018-08-31T11:27:50.543Z,25.10
2018-08-31T11:30:18.339Z,26.00
2018-08-31T11:32:46.184Z,26.40
2018-08-31T11:35:14.671Z,25.80
2018-08-31T11:37:42.694Z,25.00
2018-08-31T11:40:10.663Z,24.50
2018-08-31T11:42:38.439Z,23.40
2018-08-31T11:45:06.596Z,23.80
2018-08-31T11:47:34.366Z,23.50
2018-08-31T11:50:02.239Z,22.90
2018-08-31T11:52:30.110Z,24.00
2018-08-31T11:54:57.947Z,24.30
2018-08-31T11:57:30.105Z,24.00
2018-08-31T11:59:57.962Z,23.60
2018-08-31T12:02:25.729Z,22.90
2018-08-31T12:04:54.602Z,23.20
2018-08-31T12:07:23.382Z,22.40
2018-08-31T12:09:51.310Z,22.90
2018-08-31T12:12:19.136Z,23.60
2018-08-31T12:14:46.995Z,24.30
2018-08-31T12:17:14.787Z,24.40
2018-08-31T12:19:42.777Z,25.10
2018-08-31T12:22:10.662Z,25.90
2018-08-31T12:24:47.279Z,25.60
2018-08-31T12:27:24.849Z,26.00
2018-08-31T12:29:56.419Z,25.70
2018-08-31T12:32:26.351Z,26.30
2018-08-31T12:34:54.243Z,25.70
2018-08-31T12:37:22.036Z,26.20
2018-08-31T12:39:56.342Z,26.70
2018-08-31T12:42:29.818Z,27.00
2018-08-31T12:44:58.087Z,26.90
2018-08-31T12:47:25.887Z,26.40
2018-08-31T12:49:54.331Z,25.70
2018-08-31T12:52:24.963Z,24.80
2018-08-31T12:54:52.807Z,25.60
2018-08-31T12:57:20.641Z,24.80
2018-08-31T12:59:54.108Z,25.50
2018-08-31T13:02:21.959Z,25.50
2018-08-31T13:04:49.818Z,26.00
2018-08-31T13:07:17.536Z,26.00
2018-08-31T13:09:45.423Z,26.30
2018-08-31T13:12:13.303Z,26.20
2018-08-31T13:14:43.926Z,26.20
2018-08-31T13:17:11.825Z,25.50
2018-08-31T13:19:39.622Z,25.20
2018-08-31T13:22:07.515Z,25.10
2018-08-31T13:24:35.407Z,24.50
2018-08-31T13:27:03.535Z,24.80
2018-08-31T13:29:32.116Z,24.50
2018-08-31T13:31:59.867Z,24.60
2018-08-31T13:34:28.245Z,24.90
2018-08-31T13:36:56.015Z,24.40
2018-08-31T13:39:26.029Z,24.00
2018-08-31T13:41:53.876Z,23.90
2018-08-31T13:44:21.720Z,24.30
2018-08-31T13:46:50.671Z,24.70
2018-08-31T13:49:18.423Z,24.80
2018-08-31T13:51:46.488Z,24.70
2018-08-31T13:54:14.233Z,24.90
2018-08-31T13:56:42.108Z,25.10
2018-08-31T13:59:09.879Z,25.00
2018-08-31T14:01:37.741Z,24.60
2018-08-31T14:04:05.868Z,24.80
2018-08-31T14:06:33.752Z,24.50
2018-08-31T14:09:01.601Z,24.50
2018-08-31T14:11:29.400Z,24.20
2018-08-31T14:13:57.622Z,23.80
2018-08-31T14:16:25.831Z,23.50
2018-08-31T14:18:53.650Z,23.20
2018-08-31T14:21:21.448Z,22.90
2018-08-31T14:23:49.267Z,23.00
2018-08-31T14:26:17.067Z,23.10
2018-08-31T14:28:44.986Z,22.90
2018-08-31T14:31:12.788Z,22.80
2018-08-31T14:33:40.571Z,22.70
2018-08-31T14:36:08.480Z,22.70
2018-08-31T14:38:36.211Z,22.40
2018-08-31T14:41:03.955Z,22.40
2018-08-31T14:43:37.607Z,22.40
2018-08-31T14:46:05.412Z,22.40
2018-08-31T14:48:33.183Z,23.00
2018-08-31T14:51:01.038Z,23.00
2018-08-31T14:53:34.857Z,22.90
2018-08-31T14:56:02.703Z,23.20
2018-08-31T14:58:30.523Z,23.20
2018-08-31T15:00:58.239Z,23.50
2018-08-31T15:03:29.894Z,23.60
2018-08-31T15:05:58.258Z,23.60
2018-08-31T15:08:25.911Z,23.60
2018-08-31T15:10:53.719Z,23.80
2018-08-31T15:13:21.502Z,23.80
2018-08-31T15:15:49.312Z,23.90
2018-08-31T15:18:17.130Z,24.00
2018-08-31T15:20:44.987Z,23.70
2018-08-31T15:23:12.844Z,23.80
2018-08-31T15:25:40.753Z,23.80
2018-08-31T15:28:08.423Z,23.50
2018-08-31T15:30:36.289Z,23.50
2018-08-31T15:33:04.260Z,23.70
2018-08-31T15:35:32.186Z,23.50
2018-08-31T15:37:59.963Z,23.70
2018-08-31T15:40:27.823Z,23.80
2018-08-31T15:42:55.627Z,23.50
2018-08-31T15:45:23.457Z,23.70
2018-08-31T15:47:51.275Z,23.70
2018-08-31T15:50:20.975Z,23.20
2018-08-31T15:52:48.726Z,23.40
2018-08-31T15:55:16.576Z,22.80
2018-08-31T15:57:44.367Z,22.60
2018-08-31T16:00:12.195Z,22.80
2018-08-31T16:02:40.619Z,22.80
2018-08-31T16:05:08.935Z,22.50
2018-08-31T16:07:37.539Z,22.30
2018-08-31T16:10:05.919Z,22.00
2018-08-31T16:12:33.794Z,21.80
2018-08-31T16:15:01.616Z,21.80
2018-08-31T16:17:29.477Z,21.80
2018-08-31T16:19:57.299Z,21.70
2018-08-31T16:22:25.067Z,21.60
2018-08-31T16:24:53.087Z,21.70
2018-08-31T16:27:20.967Z,21.70
2018-08-31T16:29:49.035Z,21.80
2018-08-31T16:32:16.835Z,21.90
2018-08-31T16:34:44.674Z,21.80
2018-08-31T16:37:12.424Z,21.60
2018-08-31T16:39:40.288Z,21.90
2018-08-31T16:42:20.065Z,21.90
2018-08-31T16:44:53.975Z,21.80
2018-08-31T16:47:21.726Z,21.70
2018-08-31T16:49:49.532Z,21.80
2018-08-31T16:52:17.295Z,21.80
2018-08-31T16:54:45.064Z,21.80
2018-08-31T16:57:12.783Z,21.80
2018-08-31T16:59:40.600Z,21.60
2018-08-31T17:02:08.634Z,21.60
2018-08-31T17:04:36.475Z,21.50
2018-08-31T17:07:04.363Z,21.30
2018-08-31T17:09:32.179Z,21.20
2018-08-31T17:11:59.956Z,21.20
2018-08-31T17:14:27.745Z,21.10
2018-08-31T17:16:55.574Z,21.00
2018-08-31T17:19:23.333Z,20.90
2018-08-31T17:21:51.202Z,20.80
2018-08-31T17:24:19.212Z,20.70
2018-08-31T17:26:52.706Z,20.70
2018-08-31T17:29:26.283Z,20.70
2018-08-31T17:31:59.935Z,20.70
2018-08-31T17:34:33.765Z,20.60
2018-08-31T17:37:07.203Z,20.50
2018-08-31T17:39:35.011Z,20.40
2018-08-31T17:42:03.112Z,20.20
2018-08-31T17:44:30.897Z,20.20
2018-08-31T17:46:59.052Z,20.10
2018-08-31T17:49:27.330Z,20.00
2018-08-31T17:51:55.449Z,19.90
2018-08-31T17:54:23.243Z,19.80
2018-08-31T17:56:51.381Z,19.70
2018-08-31T17:59:19.219Z,19.70
2018-08-31T18:01:47.072Z,19.70
2018-08-31T18:04:15.443Z,19.60
2018-08-31T18:06:43.535Z,19.60
2018-08-31T18:09:11.339Z,19.50
2018-08-31T18:11:39.150Z,19.40
2018-08-31T18:14:06.956Z,19.30
2018-08-31T18:16:34.811Z,19.20
2018-08-31T18:19:02.611Z,19.20
2018-08-31T18:21:30.379Z,19.10
2018-08-31T18:23:59.944Z,19.10
2018-08-31T18:26:28.147Z,19.10
2018-08-31T18:28:56.371Z,19.00
2018-08-31T18:31:24.166Z,18.90
2018-08-31T18:33:53.244Z,18.90
2018-08-31T18:36:24.652Z,18.80
2018-08-31T18:38:52.454Z,18.80
2018-08-31T18:41:20.900Z,18.70
2018-08-31T18:43:52.488Z,18.60
2018-08-31T18:46:20.696Z,18.60
2018-08-31T18:48:49.058Z,18.60
2018-08-31T18:51:16.952Z,18.50
2018-08-31T18:53:44.843Z,18.40
2018-08-31T18:56:13.278Z,18.40
2018-08-31T18:58:41.419Z,18.30
2018-08-31T19:01:09.639Z,18.30
2018-08-31T19:03:37.978Z,18.20
2018-08-31T19:06:05.916Z,18.20
2018-08-31T19:08:36.602Z,18.10
2018-08-31T19:11:04.545Z,18.10
2018-08-31T19:13:32.261Z,18.00
2018-08-31T19:16:00.104Z,18.00
2018-08-31T19:18:28.615Z,18.00
2018-08-31T19:20:56.559Z,17.90
2018-08-31T19:23:24.595Z,17.80
2018-08-31T19:25:52.535Z,17.70
2018-08-31T19:28:20.315Z,17.70
2018-08-31T19:30:48.142Z,17.60
2018-08-31T19:33:16.099Z,17.50
2018-08-31T19:35:43.940Z,17.40
2018-08-31T19:38:12.006Z,17.30
2018-08-31T19:40:39.854Z,17.20
2018-08-31T19:43:07.720Z,17.20
2018-08-31T19:45:35.537Z,17.10
2018-08-31T19:48:03.395Z,17.00
2018-08-31T19:50:31.740Z,17.00
2018-08-31T19:52:59.566Z,16.90
2018-08-31T19:55:27.425Z,16.70
2018-08-31T19:57:58.286Z,16.70
2018-08-31T20:00:26.096Z,16.60
2018-08-31T20:02:54.026Z,16.50
2018-08-31T20:05:22.666Z,16.40
2018-08-31T20:07:51.213Z,16.30
2018-08-31T20:10:19.063Z,16.30
2018-08-31T20:12:47.385Z,16.20
2018-08-31T20:15:15.446Z,16.10
2018-08-31T20:17:43.243Z,16.00
2018-08-31T20:20:11.891Z,16.00
2018-08-31T20:22:39.604Z,15.90
2018-08-31T20:25:07.517Z,15.90
2018-08-31T20:27:35.608Z,15.80
2018-08-31T20:30:03.596Z,15.70
2018-08-31T20:32:31.455Z,15.70
2018-08-31T20:34:59.229Z,15.60
2018-08-31T20:37:27.015Z,15.60
2018-08-31T20:39:55.615Z,15.50
2018-08-31T20:42:23.699Z,15.50
2018-08-31T20:44:51.476Z,15.40
2018-08-31T20:47:19.351Z,15.40
2018-08-31T20:49:47.195Z,15.40
2018-08-31T20:52:15.498Z,15.30
2018-08-31T20:54:43.270Z,15.30
2018-08-31T20:57:11.124Z,15.20
2018-08-31T20:59:38.927Z,15.20
2018-08-31T21:02:06.707Z,15.20
2018-08-31T21:04:34.491Z,15.10
2018-08-31T21:07:02.242Z,15.20
2018-08-31T21:09:30.024Z,15.10
2018-08-31T21:11:58.026Z,15.10
2018-08-31T21:14:25.985Z,15.10
2018-08-31T21:16:53.815Z,15.10
2018-08-31T21:19:21.622Z,15.00
2018-08-31T21:21:49.474Z,15.00
2018-08-31T21:24:17.291Z,15.10
2018-08-31T21:26:45.140Z,14.90
2018-08-31T21:29:12.957Z,14.90
2018-08-31T21:31:40.756Z,14.80
2018-08-31T21:34:08.796Z,14.80
2018-08-31T21:36:36.639Z,14.70
2018-08-31T21:39:06.347Z,14.80
2018-08-31T21:41:34.174Z,14.80
2018-08-31T21:44:02.034Z,14.70
2018-08-31T21:46:29.852Z,14.60
2018-08-31T21:48:57.631Z,14.50
2018-08-31T21:51:25.463Z,14.50
2018-08-31T21:53:54.674Z,14.40
2018-08-31T21:56:22.479Z,14.30
2018-08-31T21:58:50.327Z,14.30
2018-08-31T22:01:40.144Z,14.30
2018-08-31T22:04:09.452Z,14.20
2018-08-31T22:06:37.820Z,14.20
2018-08-31T22:09:07.424Z,14.10
2018-08-31T22:11:35.267Z,14.10
2018-08-31T22:14:03.102Z,14.10
2018-08-31T22:16:30.862Z,14.00
2018-08-31T22:18:58.651Z,14.00
2018-08-31T22:21:26.500Z,14.00
2018-08-31T22:23:54.259Z,13.90
2018-08-31T22:26:22.084Z,13.80
2018-08-31T22:28:49.815Z,13.80
2018-08-31T22:31:17.636Z,13.90
2018-08-31T22:33:45.501Z,13.80
2018-08-31T22:36:13.319Z,13.70
2018-08-31T22:38:41.162Z,13.70
2018-08-31T22:41:09.019Z,13.60
2018-08-31T22:43:42.281Z,13.70
2018-08-31T22:46:10.143Z,13.60
2018-08-31T22:48:37.980Z,13.60
2018-08-31T22:51:05.821Z,13.50
2018-08-31T22:53:33.651Z,13.50
2018-08-31T22:56:01.447Z,13.50
2018-08-31T22:58:29.383Z,13.50
2018-08-31T23:00:57.204Z,13.40
2018-08-31T23:03:25.034Z,13.40
2018-08-31T23:05:53.019Z,13.50
2018-08-31T23:08:20.840Z,13.40
2018-08-31T23:10:48.661Z,13.40
2018-08-31T23:13:16.489Z,13.40
2018-08-31T23:15:44.166Z,13.30
2018-08-31T23:18:11.992Z,13.30
2018-08-31T23:20:39.806Z,13.20
2018-08-31T23:23:13.311Z,13.20
2018-08-31T23:25:46.846Z,13.20
2018-08-31T23:28:14.562Z,13.00
2018-08-31T23:30:42.471Z,13.10
2018-08-31T23:33:10.371Z,13.00
2018-08-31T23:35:38.187Z,12.90
2018-08-31T23:38:11.715Z,12.70
2018-08-31T23:40:39.799Z,12.90
2018-08-31T23:43:08.467Z,12.80
2018-08-31T23:45:36.523Z,12.80
2018-08-31T23:48:04.432Z,12.60
2018-08-31T23:50:32.207Z,12.60
2018-08-31T23:53:00.052Z,12.40
2018-08-31T23:55:28.147Z,12.50
2018-08-31T23:57:56.000Z,12.60
